Time;durP1;ratioP1;P1;durP2;ratioP2;P2;SDS_P1;SDS_P2;PMS_P1;PMS_P2;Temp;Humidity;BMP_temperature;BMP_pressure;BME280_temperature;BME280_humidity;BME280_pressure;Samples;Min_cycle;Max_cycle;Signal;HPM_P1;HPM_P2
2023/07/07 00:02:17;;;;;;;3.13;2.20;;;;;;;;;;5018298;28;20116;-82
2023/07/07 00:04:43;;;;;;;3.03;1.98;;;;;;;;;;4984522;28;20049;-82
2023/07/07 00:07:10;;;;;;;4.13;2.13;;;;;;;;;;5002518;28;20041;-83
2023/07/07 00:09:37;;;;;;;7.15;2.70;;;;;;;;;;5021051;28;20050;-84
2023/07/07 00:12:04;;;;;;;5.53;2.85;;;;;;;;;;5003675;28;20042;-85
2023/07/07 00:14:31;;;;;;;7.10;2.60;;;;;;;;;;4989173;28;20061;-82
2023/07/07 00:17:01;;;;;;;8.05;2.85;;;;;;;;;;5009820;28;20053;-83
2023/07/07 00:19:32;;;;;;;4.32;2.67;;;;;;;;;;5024182;28;20042;-82
2023/07/07 00:22:05;;;;;;;7.30;3.10;;;;;;;;;;5005318;28;20054;-82
2023/07/07 00:24:32;;;;;;;3.97;2.40;;;;;;;;;;5006977;28;20061;-85
2023/07/07 00:26:59;;;;;;;4.72;2.58;;;;;;;;;;5005232;28;20041;-84
2023/07/07 00:29:26;;;;;;;3.05;2.13;;;;;;;;;;4989021;28;20100;-83
2023/07/07 00:31:53;;;;;;;3.50;2.30;;;;;;;;;;5005518;28;20424;-83
2023/07/07 00:34:20;;;;;;;2.95;2.35;;;;;;;;;;5004142;28;20280;-82
2023/07/07 00:36:46;;;;;;;6.72;2.63;;;;;;;;;;5003387;28;20061;-82
2023/07/07 00:39:14;;;;;;;4.38;2.95;;;;;;;;;;5003251;28;20042;-84
2023/07/07 00:41:41;;;;;;;5.47;2.72;;;;;;;;;;5003590;28;20061;-81
2023/07/07 00:44:09;;;;;;;6.35;3.20;;;;;;;;;;5012669;28;20034;-83
2023/07/07 00:46:37;;;;;;;7.07;2.97;;;;;;;;;;5008288;28;20105;-84
2023/07/07 00:49:06;;;;;;;4.55;3.00;;;;;;;;;;5028022;28;20057;-83
2023/07/07 00:51:36;;;;;;;6.10;2.92;;;;;;;;;;5010301;28;20275;-81
2023/07/07 00:54:04;;;;;;;5.05;2.85;;;;;;;;;;5044607;28;20049;-83
2023/07/07 00:56:34;;;;;;;5.10;2.92;;;;;;;;;;5031958;28;20042;-83
2023/07/07 00:59:04;;;;;;;5.82;3.05;;;;;;;;;;4982423;28;20042;-83
2023/07/07 01:01:34;;;;;;;8.27;3.03;;;;;;;;;;5002961;28;20050;-84
2023/07/07 01:04:04;;;;;;;5.18;2.70;;;;;;;;;;4978709;28;20128;-82
2023/07/07 01:06:34;;;;;;;5.35;2.20;;;;;;;;;;4983552;28;20057;-82
2023/07/07 01:09:06;;;;;;;3.55;2.33;;;;;;;;;;5002557;28;20065;-81
2023/07/07 01:11:33;;;;;;;8.27;2.50;;;;;;;;;;5001959;28;20111;-81
2023/07/07 01:14:02;;;;;;;4.05;2.05;;;;;;;;;;5022343;28;20049;-83
2023/07/07 01:16:44;;;;;;;5.13;2.13;;;;;;;;;;4989436;28;20069;-81
2023/07/07 01:19:15;;;;;;;5.70;2.30;;;;;;;;;;4988838;28;20042;-83
2023/07/07 01:21:46;;;;;;;8.40;2.50;;;;;;;;;;5004268;28;20128;-84
2023/07/07 01:24:37;;;;;;;6.20;2.40;;;;;;;;;;5023219;28;20372;-84
2023/07/07 01:27:07;;;;;;;4.15;2.25;;;;;;;;;;5003834;28;20041;-84
2023/07/07 01:29:43;;;;;;;4.65;2.33;;;;;;;;;;5005626;28;20073;-82
2023/07/07 01:32:20;;;;;;;3.38;2.20;;;;;;;;;;5004826;28;20045;-84
2023/07/07 01:34:47;;;;;;;6.53;2.20;;;;;;;;;;5005320;28;20046;-83
2023/07/07 01:37:14;;;;;;;6.93;2.67;;;;;;;;;;4988536;28;20175;-83
2023/07/07 01:39:42;;;;;;;5.80;2.42;;;;;;;;;;4989713;28;20034;-82
2023/07/07 01:42:11;;;;;;;5.50;2.60;;;;;;;;;;5004259;28;20053;-83
2023/07/07 01:44:38;;;;;;;4.65;2.25;;;;;;;;;;4996448;28;20050;-82
2023/07/07 01:47:16;;;;;;;5.45;2.70;;;;;;;;;;5020503;28;20104;-82
2023/07/07 01:49:45;;;;;;;5.47;2.75;;;;;;;;;;5022121;28;20065;-84
2023/07/07 01:52:25;;;;;;;6.40;3.00;;;;;;;;;;5021797;28;20050;-83
2023/07/07 01:54:55;;;;;;;4.95;2.92;;;;;;;;;;5015914;28;20498;-83
2023/07/07 01:57:24;;;;;;;5.85;3.25;;;;;;;;;;5014733;28;20243;-83
2023/07/07 01:59:51;;;;;;;6.50;2.58;;;;;;;;;;5016861;28;20069;-81
2023/07/07 02:02:18;;;;;;;4.45;2.90;;;;;;;;;;5018286;28;20053;-82
2023/07/07 02:04:47;;;;;;;6.07;3.28;;;;;;;;;;5019041;28;20061;-81
2023/07/07 02:07:14;;;;;;;5.15;2.70;;;;;;;;;;5019071;28;20073;-82
2023/07/07 02:09:41;;;;;;;8.80;3.90;;;;;;;;;;5019465;28;20072;-83
2023/07/07 02:12:08;;;;;;;5.45;3.42;;;;;;;;;;5003133;28;20088;-82
2023/07/07 02:14:35;;;;;;;11.10;3.90;;;;;;;;;;5020448;28;20261;-83
2023/07/07 02:17:01;;;;;;;5.03;3.47;;;;;;;;;;5024197;28;21028;-83
2023/07/07 02:19:28;;;;;;;7.20;3.50;;;;;;;;;;5006915;28;20054;-86
2023/07/07 02:21:55;;;;;;;7.22;3.60;;;;;;;;;;5007235;28;20050;-83
2023/07/07 02:24:21;;;;;;;6.55;4.00;;;;;;;;;;5021219;28;20053;-83
2023/07/07 02:26:49;;;;;;;8.52;4.10;;;;;;;;;;5005568;28;20049;-85
2023/07/07 02:29:16;;;;;;;6.72;3.97;;;;;;;;;;5024479;28;20064;-85
2023/07/07 02:31:43;;;;;;;7.32;4.28;;;;;;;;;;5041147;28;20045;-81
2023/07/07 02:34:10;;;;;;;6.80;3.50;;;;;;;;;;5027850;28;20057;-84
2023/07/07 02:36:38;;;;;;;7.55;4.00;;;;;;;;;;5043225;28;20037;-83
2023/07/07 02:39:05;;;;;;;5.22;3.60;;;;;;;;;;5011666;28;20183;-83
2023/07/07 02:41:32;;;;;;;7.60;3.88;;;;;;;;;;5046871;28;20054;-84
2023/07/07 02:43:59;;;;;;;6.68;3.03;;;;;;;;;;5027231;28;20045;-83
2023/07/07 02:46:26;;;;;;;7.28;3.47;;;;;;;;;;5024378;28;20058;-80
2023/07/07 02:48:52;;;;;;;4.47;2.60;;;;;;;;;;5000653;28;20100;-81
2023/07/07 02:51:19;;;;;;;10.15;3.25;;;;;;;;;;5017136;28;20096;-83
2023/07/07 02:53:46;;;;;;;5.95;3.20;;;;;;;;;;5018468;28;20491;-81
2023/07/07 02:56:12;;;;;;;5.63;3.45;;;;;;;;;;5016197;28;20584;-80
2023/07/07 02:58:39;;;;;;;4.70;3.30;;;;;;;;;;5023914;28;20049;-79
2023/07/07 03:01:09;;;;;;;4.88;3.13;;;;;;;;;;5022027;28;20132;-79
2023/07/07 03:03:37;;;;;;;5.65;3.55;;;;;;;;;;5022248;28;20042;-80
2023/07/07 03:06:05;;;;;;;7.53;3.92;;;;;;;;;;5022291;28;20058;-81
2023/07/07 03:08:32;;;;;;;11.30;3.90;;;;;;;;;;5025596;28;20064;-79
2023/07/07 03:11:02;;;;;;;6.05;3.30;;;;;;;;;;5022036;28;20030;-80
2023/07/07 03:13:29;;;;;;;6.10;3.30;;;;;;;;;;5020828;28;20125;-80
2023/07/07 03:15:56;;;;;;;5.38;3.25;;;;;;;;;;5000483;28;20049;-80
2023/07/07 03:18:24;;;;;;;5.30;3.25;;;;;;;;;;5024980;28;20046;-81
2023/07/07 03:20:57;;;;;;;4.88;2.88;;;;;;;;;;5008090;28;20038;-80
2023/07/07 03:23:25;;;;;;;9.55;2.97;;;;;;;;;;5024570;28;20046;-80
2023/07/07 03:25:53;;;;;;;5.32;2.90;;;;;;;;;;5006589;28;20042;-81
2023/07/07 03:28:21;;;;;;;7.15;3.25;;;;;;;;;;5026053;28;20052;-80
2023/07/07 03:30:48;;;;;;;5.78;3.45;;;;;;;;;;5009107;28;20545;-80
2023/07/07 03:33:17;;;;;;;4.53;2.80;;;;;;;;;;5016286;28;20100;-81
2023/07/07 03:35:46;;;;;;;6.13;3.55;;;;;;;;;;5019853;28;20073;-80
2023/07/07 03:38:14;;;;;;;6.75;3.45;;;;;;;;;;5025551;28;20033;-80
2023/07/07 03:40:44;;;;;;;6.97;3.95;;;;;;;;;;5025104;28;20057;-79
2023/07/07 03:43:11;;;;;;;9.77;3.40;;;;;;;;;;5009479;28;20153;-79
2023/07/07 03:45:38;;;;;;;6.15;3.42;;;;;;;;;;5032403;28;20068;-81
2023/07/07 03:48:04;;;;;;;6.30;3.80;;;;;;;;;;4991902;28;20045;-81
2023/07/07 03:50:31;;;;;;;8.48;3.60;;;;;;;;;;5022199;28;20102;-81
2023/07/07 03:52:58;;;;;;;6.55;3.83;;;;;;;;;;5039180;28;20045;-80
2023/07/07 03:55:25;;;;;;;7.05;3.72;;;;;;;;;;5019164;28;20049;-80
2023/07/07 03:57:52;;;;;;;6.95;3.40;;;;;;;;;;5003898;28;20426;-80
2023/07/07 04:00:19;;;;;;;8.73;3.75;;;;;;;;;;5006250;28;20119;-80
2023/07/07 04:02:46;;;;;;;9.73;3.83;;;;;;;;;;4993387;28;20065;-80
2023/07/07 04:05:17;;;;;;;8.95;3.17;;;;;;;;;;5000223;28;20050;-81
2023/07/07 04:07:44;;;;;;;8.18;3.42;;;;;;;;;;5001738;28;20111;-81
2023/07/07 04:10:11;;;;;;;8.55;3.25;;;;;;;;;;5027076;28;20101;-80
2023/07/07 04:12:38;;;;;;;6.95;3.45;;;;;;;;;;5025771;28;20057;-80
2023/07/07 04:15:04;;;;;;;5.82;3.60;;;;;;;;;;5028033;28;20172;-82
2023/07/07 04:17:31;;;;;;;10.73;4.25;;;;;;;;;;5043161;28;20577;-80
2023/07/07 04:19:58;;;;;;;8.60;4.00;;;;;;;;;;5022551;28;20045;-80
2023/07/07 04:22:25;;;;;;;8.13;4.05;;;;;;;;;;5025202;28;20075;-80
2023/07/07 04:25:07;;;;;;;9.95;4.25;;;;;;;;;;5030188;28;20053;-80
2023/07/07 04:27:34;;;;;;;8.50;4.50;;;;;;;;;;4992609;28;20050;-80
2023/07/07 04:30:01;;;;;;;6.35;4.00;;;;;;;;;;5031721;28;20413;-81
2023/07/07 04:32:32;;;;;;;8.43;4.40;;;;;;;;;;5030767;28;20052;-80
2023/07/07 04:34:59;;;;;;;8.07;4.40;;;;;;;;;;5038475;28;20069;-79
2023/07/07 04:37:35;;;;;;;9.20;3.78;;;;;;;;;;5024140;28;20341;-80
2023/07/07 04:40:02;;;;;;;8.00;4.22;;;;;;;;;;5023696;28;20057;-78
2023/07/07 04:42:29;;;;;;;10.48;4.53;;;;;;;;;;5024364;28;20049;-80
2023/07/07 04:44:55;;;;;;;6.80;4.10;;;;;;;;;;5027886;28;20046;-79
2023/07/07 04:47:22;;;;;;;8.25;3.80;;;;;;;;;;5026361;28;20045;-79
2023/07/07 04:49:49;;;;;;;8.45;4.00;;;;;;;;;;5026868;28;20061;-78
2023/07/07 04:52:17;;;;;;;9.60;4.10;;;;;;;;;;5026666;28;20057;-79
2023/07/07 04:54:43;;;;;;;7.72;4.35;;;;;;;;;;5012748;28;20046;-79
2023/07/07 04:57:10;;;;;;;8.48;3.55;;;;;;;;;;5015992;28;20050;-80
2023/07/07 04:59:37;;;;;;;10.20;4.40;;;;;;;;;;5012154;28;20061;-79
2023/07/07 05:02:04;;;;;;;9.25;3.78;;;;;;;;;;4995214;28;20110;-81
2023/07/07 05:04:31;;;;;;;9.35;3.85;;;;;;;;;;5005138;28;20056;-79
2023/07/07 05:06:58;;;;;;;7.22;3.80;;;;;;;;;;5002365;28;20105;-79
2023/07/07 05:09:24;;;;;;;7.90;3.70;;;;;;;;;;5002239;28;20056;-78
2023/07/07 05:11:54;;;;;;;8.73;4.13;;;;;;;;;;4998002;28;20050;-78
2023/07/07 05:14:20;;;;;;;6.40;3.70;;;;;;;;;;5015499;28;20320;-81
2023/07/07 05:16:47;;;;;;;6.38;3.60;;;;;;;;;;4997646;28;20054;-83
2023/07/07 05:19:13;;;;;;;8.15;3.28;;;;;;;;;;4990344;28;20049;-74
2023/07/07 05:21:40;;;;;;;8.75;3.10;;;;;;;;;;5019759;28;20473;-79
2023/07/07 05:24:07;;;;;;;7.00;3.15;;;;;;;;;;5003621;28;20459;-81
2023/07/07 05:26:33;;;;;;;12.32;3.95;;;;;;;;;;4986005;28;20554;-80
2023/07/07 05:29:01;;;;;;;8.55;3.55;;;;;;;;;;4997954;28;20046;-80
2023/07/07 05:31:28;;;;;;;13.32;4.10;;;;;;;;;;4994786;28;20042;-81
2023/07/07 05:33:54;;;;;;;6.68;3.40;;;;;;;;;;5000726;28;20072;-80
2023/07/07 05:36:21;;;;;;;7.88;3.55;;;;;;;;;;5021845;28;20309;-80
2023/07/07 05:38:48;;;;;;;5.97;3.10;;;;;;;;;;5023007;28;20042;-80
2023/07/07 05:41:14;;;;;;;7.65;2.85;;;;;;;;;;5003546;28;20034;-80
2023/07/07 05:43:41;;;;;;;5.47;3.03;;;;;;;;;;5006159;28;20490;-81
2023/07/07 05:46:11;;;;;;;8.10;3.22;;;;;;;;;;5010204;28;20076;-80
2023/07/07 05:48:39;;;;;;;10.48;3.28;;;;;;;;;;5029208;28;20069;-81
2023/07/07 05:51:06;;;;;;;5.60;2.60;;;;;;;;;;5010458;28;20140;-80
2023/07/07 05:53:34;;;;;;;10.25;2.67;;;;;;;;;;5016885;28;20497;-82
2023/07/07 05:56:03;;;;;;;7.90;3.10;;;;;;;;;;5002533;28;20049;-81
2023/07/07 05:58:30;;;;;;;10.93;2.85;;;;;;;;;;5019714;28;20042;-80
2023/07/07 06:00:57;;;;;;;9.45;2.60;;;;;;;;;;5034584;28;20042;-81
2023/07/07 06:03:24;;;;;;;5.13;2.80;;;;;;;;;;5000288;28;20056;-81
2023/07/07 06:05:51;;;;;;;3.95;2.38;;;;;;;;;;5003432;28;20064;-80
2023/07/07 06:08:17;;;;;;;5.78;2.67;;;;;;;;;;5045044;28;20049;-81
2023/07/07 06:10:48;;;;;;;8.77;2.60;;;;;;;;;;5038105;28;20045;-81
2023/07/07 06:13:17;;;;;;;6.45;2.67;;;;;;;;;;5024098;28;20090;-81
2023/07/07 06:15:44;;;;;;;8.68;2.40;;;;;;;;;;5029335;28;20176;-82
2023/07/07 06:18:11;;;;;;;8.73;2.70;;;;;;;;;;5011144;28;20048;-81
2023/07/07 06:20:38;;;;;;;10.65;4.50;;;;;;;;;;5018239;28;20052;-80
2023/07/07 06:23:05;;;;;;;5.93;2.70;;;;;;;;;;5013418;28;20030;-81
2023/07/07 06:25:32;;;;;;;5.93;3.13;;;;;;;;;;5015238;28;20072;-80
2023/07/07 06:27:58;;;;;;;5.63;2.90;;;;;;;;;;5017888;28;21498;-81
2023/07/07 06:30:25;;;;;;;4.53;2.50;;;;;;;;;;5018192;28;20291;-81
2023/07/07 06:32:51;;;;;;;9.57;2.70;;;;;;;;;;5021298;28;20052;-81
2023/07/07 06:35:18;;;;;;;6.13;2.60;;;;;;;;;;5020361;28;20042;-80
2023/07/07 06:37:44;;;;;;;7.70;2.45;;;;;;;;;;5039375;28;20079;-82
2023/07/07 06:40:11;;;;;;;7.45;2.75;;;;;;;;;;5020914;28;20038;-80
2023/07/07 06:42:38;;;;;;;6.38;2.95;;;;;;;;;;5019511;28;20123;-81
2023/07/07 06:45:08;;;;;;;7.22;2.42;;;;;;;;;;5004394;28;20520;-81
2023/07/07 06:47:36;;;;;;;4.82;2.50;;;;;;;;;;5003998;28;20049;-80
2023/07/07 06:50:02;;;;;;;6.63;2.38;;;;;;;;;;5022592;28;20136;-81
2023/07/07 06:52:31;;;;;;;6.57;2.30;;;;;;;;;;5022711;28;20506;-82
2023/07/07 06:54:58;;;;;;;7.85;2.08;;;;;;;;;;5022649;28;20069;-81
2023/07/07 06:57:25;;;;;;;10.57;2.35;;;;;;;;;;5011890;28;20038;-81
2023/07/07 06:59:52;;;;;;;6.32;1.98;;;;;;;;;;5039658;28;20042;-80
2023/07/07 07:02:18;;;;;;;6.68;1.80;;;;;;;;;;5018655;28;20061;-81
2023/07/07 07:04:45;;;;;;;7.35;2.15;;;;;;;;;;5019620;28;20056;-81
2023/07/07 07:07:12;;;;;;;6.43;2.05;;;;;;;;;;5021644;28;20056;-80
2023/07/07 07:09:38;;;;;;;5.03;1.98;;;;;;;;;;5000621;28;20124;-79
2023/07/07 07:12:05;;;;;;;4.63;2.20;;;;;;;;;;5015559;28;20046;-81
2023/07/07 07:14:31;;;;;;;4.57;1.77;;;;;;;;;;5017999;28;20076;-81
2023/07/07 07:16:58;;;;;;;4.57;1.95;;;;;;;;;;5012229;28;20100;-81
2023/07/07 07:19:25;;;;;;;8.65;2.08;;;;;;;;;;5012054;28;20045;-80
2023/07/07 07:21:51;;;;;;;4.15;2.00;;;;;;;;;;5012785;28;20049;-82
2023/07/07 07:24:19;;;;;;;7.95;2.40;;;;;;;;;;5014126;28;20052;-81
2023/07/07 07:26:49;;;;;;;12.10;5.07;;;;;;;;;;5012055;28;20537;-81
2023/07/07 07:29:15;;;;;;;4.85;2.20;;;;;;;;;;5016147;28;20117;-80
2023/07/07 07:31:43;;;;;;;3.47;1.90;;;;;;;;;;4998298;28;20045;-79
2023/07/07 07:34:22;;;;;;;6.05;1.95;;;;;;;;;;4998452;28;20065;-80
2023/07/07 07:36:52;;;;;;;4.82;2.20;;;;;;;;;;5012687;28;20053;-79
2023/07/07 07:39:19;;;;;;;11.88;2.35;;;;;;;;;;5014355;28;20160;-81
2023/07/07 07:41:47;;;;;;;3.80;1.88;;;;;;;;;;5003329;28;20300;-80
2023/07/07 07:44:14;;;;;;;6.80;2.10;;;;;;;;;;5022757;28;20490;-81
2023/07/07 07:46:41;;;;;;;5.97;1.95;;;;;;;;;;5022108;28;20121;-80
2023/07/07 07:49:08;;;;;;;4.80;2.00;;;;;;;;;;5012788;28;20057;-80
2023/07/07 07:51:39;;;;;;;6.75;2.65;;;;;;;;;;5005866;28;20073;-81
2023/07/07 07:54:10;;;;;;;4.88;2.38;;;;;;;;;;5015007;28;20428;-80
2023/07/07 07:56:37;;;;;;;7.38;2.08;;;;;;;;;;5015684;28;20128;-81
2023/07/07 07:59:05;;;;;;;5.30;2.25;;;;;;;;;;5014157;28;20046;-80
2023/07/07 08:01:33;;;;;;;6.85;2.00;;;;;;;;;;5008305;28;20058;-82
2023/07/07 08:04:02;;;;;;;4.53;2.00;;;;;;;;;;4998933;28;20050;-81
2023/07/07 08:06:28;;;;;;;4.50;2.13;;;;;;;;;;5029332;28;20044;-82
2023/07/07 08:08:55;;;;;;;6.68;2.00;;;;;;;;;;5019863;28;20041;-82
2023/07/07 08:11:40;;;;;;;4.57;1.90;;;;;;;;;;5036551;28;20341;-80
2023/07/07 08:14:10;;;;;;;2.97;1.63;;;;;;;;;;5038618;28;20052;-82
2023/07/07 08:16:37;;;;;;;4.32;1.63;;;;;;;;;;5057926;28;20289;-83
2023/07/07 08:19:04;;;;;;;2.95;1.77;;;;;;;;;;5023550;28;20108;-81
2023/07/07 08:21:30;;;;;;;6.72;2.08;;;;;;;;;;5023069;28;20091;-81
2023/07/07 08:23:58;;;;;;;5.85;2.00;;;;;;;;;;5039192;28;20063;-82
2023/07/07 08:26:25;;;;;;;2.67;1.73;;;;;;;;;;5055609;28;20470;-80
2023/07/07 08:28:52;;;;;;;3.55;1.90;;;;;;;;;;5022026;28;20060;-81
2023/07/07 08:31:18;;;;;;;4.55;2.03;;;;;;;;;;5038398;28;20108;-80
2023/07/07 08:33:46;;;;;;;3.97;2.10;;;;;;;;;;5034765;28;20051;-80
2023/07/07 08:36:25;;;;;;;4.47;2.05;;;;;;;;;;4991924;28;20064;-81
2023/07/07 08:38:51;;;;;;;3.85;2.00;;;;;;;;;;5000134;28;20048;-80
2023/07/07 08:41:18;;;;;;;3.78;1.98;;;;;;;;;;4982400;28;20074;-80
2023/07/07 08:43:45;;;;;;;2.83;1.50;;;;;;;;;;5015041;28;20041;-81
2023/07/07 08:46:18;;;;;;;4.68;1.92;;;;;;;;;;5002103;28;20494;-81
2023/07/07 08:49:03;;;;;;;3.63;1.85;;;;;;;;;;5018168;28;20510;-81
2023/07/07 08:51:34;;;;;;;3.37;1.77;;;;;;;;;;5034390;28;20128;-81
2023/07/07 08:54:07;;;;;;;3.15;1.70;;;;;;;;;;5037668;28;20506;-81
2023/07/07 08:56:36;;;;;;;;;;;;;;;;;;5039306;28;20180;-79
2023/07/07 08:59:15;;;;;;;4.07;1.80;;;;;;;;;;5040504;28;20099;-80
2023/07/07 09:01:58;;;;;;;3.00;1.73;;;;;;;;;;5022296;28;20076;-81
2023/07/07 09:04:36;;;;;;;1.90;1.40;;;;;;;;;;5021277;28;20049;-79
2023/07/07 09:07:16;;;;;;;4.43;1.90;;;;;;;;;;5005788;28;20057;-81
2023/07/07 09:09:54;;;;;;;3.80;1.70;;;;;;;;;;5021239;28;20045;-81
2023/07/07 09:12:41;;;;;;;8.27;1.85;;;;;;;;;;5018886;28;20460;-80
2023/07/07 09:15:22;;;;;;;5.07;1.80;;;;;;;;;;5023067;28;20500;-81
2023/07/07 09:17:53;;;;;;;5.55;1.90;;;;;;;;;;5009231;28;20428;-81
2023/07/07 09:20:22;;;;;;;5.10;1.70;;;;;;;;;;5001078;28;20046;-81
2023/07/07 09:23:00;;;;;;;3.65;1.58;;;;;;;;;;5007488;28;20042;-80
2023/07/07 09:25:32;;;;;;;3.47;1.77;;;;;;;;;;5006064;28;20049;-80
2023/07/07 09:28:16;;;;;;;6.22;2.13;;;;;;;;;;5000549;28;20108;-81
2023/07/07 09:30:58;;;;;;;5.00;2.00;;;;;;;;;;4993688;28;20418;-80
2023/07/07 09:33:26;;;;;;;5.07;1.63;;;;;;;;;;5004436;28;20045;-80
2023/07/07 09:36:08;;;;;;;4.35;1.80;;;;;;;;;;5023003;28;20052;-79
2023/07/07 09:38:45;;;;;;;4.53;2.10;;;;;;;;;;5010964;28;20061;-79
2023/07/07 09:41:13;;;;;;;4.53;1.77;;;;;;;;;;5012131;28;20073;-80
2023/07/07 09:43:58;;;;;;;3.67;1.98;;;;;;;;;;4993806;28;20076;-81
2023/07/07 09:46:35;;;;;;;4.33;1.97;;;;;;;;;;5028938;28;20049;-81
2023/07/07 09:49:18;;;;;;;4.95;2.03;;;;;;;;;;5013585;28;20461;-80
2023/07/07 09:51:54;;;;;;;4.75;2.10;;;;;;;;;;5011716;28;20053;-80
2023/07/07 09:54:23;;;;;;;3.97;2.08;;;;;;;;;;5016783;28;20049;-80
2023/07/07 09:56:57;;;;;;;5.55;1.88;;;;;;;;;;4990948;28;20045;-80
2023/07/07 09:59:27;;;;;;;3.05;1.95;;;;;;;;;;4991580;28;20063;-80
2023/07/07 10:01:55;;;;;;;5.88;2.08;;;;;;;;;;4992952;28;20447;-81
2023/07/07 10:04:24;;;;;;;5.22;1.98;;;;;;;;;;4996768;28;20129;-81
2023/07/07 10:06:51;;;;;;;5.70;1.92;;;;;;;;;;5010815;28;20100;-81
2023/07/07 10:09:18;;;;;;;2.88;2.00;;;;;;;;;;5007070;28;20033;-81
2023/07/07 10:11:46;;;;;;;3.15;2.05;;;;;;;;;;5026879;28;20490;-81
2023/07/07 10:14:34;;;;;;;4.18;3.10;;;;;;;;;;5013409;28;20121;-82
2023/07/07 10:17:14;;;;;;;3.78;2.17;;;;;;;;;;5001992;28;20068;-82
2023/07/07 10:19:41;;;;;;;3.55;2.10;;;;;;;;;;5011615;28;20046;-81
2023/07/07 10:22:09;;;;;;;4.55;2.17;;;;;;;;;;5018532;28;20110;-82
2023/07/07 10:24:36;;;;;;;6.93;1.95;;;;;;;;;;4998739;28;20127;-81
2023/07/07 10:27:03;;;;;;;4.35;1.98;;;;;;;;;;5018178;28;20053;-81
2023/07/07 10:29:39;;;;;;;3.42;1.80;;;;;;;;;;4992816;28;20446;-81
2023/07/07 10:32:20;;;;;;;4.68;2.30;;;;;;;;;;4994331;28;20110;-81
2023/07/07 10:34:48;;;;;;;3.72;2.05;;;;;;;;;;4997632;28;20065;-80
2023/07/07 10:37:19;;;;;;;5.72;1.85;;;;;;;;;;5016384;28;20140;-82
2023/07/07 10:39:53;;;;;;;7.40;2.33;;;;;;;;;;5028734;28;20053;-81
2023/07/07 10:42:23;;;;;;;2.40;1.80;;;;;;;;;;5014207;28;20072;-81
2023/07/07 10:44:50;;;;;;;4.68;1.98;;;;;;;;;;5037483;28;20050;-82
2023/07/07 10:47:21;;;;;;;3.35;1.90;;;;;;;;;;5033538;28;20441;-80
2023/07/07 10:50:13;;;;;;;4.45;2.03;;;;;;;;;;5022670;28;20457;-83
2023/07/07 10:52:51;;;;;;;2.35;1.80;;;;;;;;;;5023930;28;20048;-81
2023/07/07 10:55:29;;;;;;;4.95;2.10;;;;;;;;;;5018828;28;20058;-83
2023/07/07 10:57:55;;;;;;;3.20;2.17;;;;;;;;;;5016876;28;20038;-81
2023/07/07 11:00:25;;;;;;;4.82;2.20;;;;;;;;;;5029966;28;20091;-81
2023/07/07 11:03:15;;;;;;;4.80;2.22;;;;;;;;;;5033249;28;20045;-81
2023/07/07 11:06:02;;;;;;;4.10;1.98;;;;;;;;;;5001171;28;20037;-82
2023/07/07 11:08:49;;;;;;;4.10;2.40;;;;;;;;;;5027518;28;20068;-81
2023/07/07 11:11:45;;;;;;;3.85;2.30;;;;;;;;;;5016282;28;20119;-82
2023/07/07 11:14:24;;;;;;;3.92;2.10;;;;;;;;;;4985225;28;20094;-81
2023/07/07 11:16:58;;;;;;;3.47;2.05;;;;;;;;;;5029682;28;20053;-81
2023/07/07 11:19:25;;;;;;;3.85;2.15;;;;;;;;;;5021618;28;20065;-80
2023/07/07 11:22:00;;;;;;;4.10;2.10;;;;;;;;;;5027343;28;20061;-80
2023/07/07 11:24:32;;;;;;;3.65;2.30;;;;;;;;;;5021793;28;20045;-81
2023/07/07 11:27:30;;;;;;;6.18;2.28;;;;;;;;;;5038488;28;20118;-82
2023/07/07 11:30:00;;;;;;;3.22;2.30;;;;;;;;;;5022164;28;20069;-81
2023/07/07 11:32:34;;;;;;;4.18;1.80;;;;;;;;;;5040541;28;20107;-82
2023/07/07 11:35:04;;;;;;;4.72;2.10;;;;;;;;;;5001552;28;20118;-81
2023/07/07 11:37:30;;;;;;;4.40;1.95;;;;;;;;;;5031656;28;20050;-82
2023/07/07 11:40:16;;;;;;;3.35;2.40;;;;;;;;;;5006468;28;20565;-81
2023/07/07 11:42:49;;;;;;;2.97;2.08;;;;;;;;;;5017152;28;20060;-80
2023/07/07 11:45:27;;;;;;;2.97;2.23;;;;;;;;;;5026628;28;20056;-80
2023/07/07 11:47:55;;;;;;;2.83;2.35;;;;;;;;;;4999939;28;20053;-81
2023/07/07 11:50:26;;;;;;;2.20;1.85;;;;;;;;;;4986190;28;20093;-81
2023/07/07 11:53:11;;;;;;;3.90;2.40;;;;;;;;;;4989688;28;20049;-82
2023/07/07 11:55:47;;;;;;;3.80;2.20;;;;;;;;;;5022598;28;20407;-82
2023/07/07 11:58:17;;;;;;;3.55;1.90;;;;;;;;;;5002598;28;20042;-79
2023/07/07 12:00:51;;;;;;;3.35;2.20;;;;;;;;;;5013803;28;20069;-82
2023/07/07 12:03:23;;;;;;;3.05;2.30;;;;;;;;;;5015642;28;20100;-81
2023/07/07 12:05:51;;;;;;;2.42;2.00;;;;;;;;;;5014799;28;20056;-81
2023/07/07 12:08:20;;;;;;;3.05;2.15;;;;;;;;;;4977589;28;20037;-81
2023/07/07 12:10:51;;;;;;;2.88;2.15;;;;;;;;;;5010075;28;20148;-80
2023/07/07 12:13:22;;;;;;;3.92;2.40;;;;;;;;;;4980987;28;20038;-80
2023/07/07 12:15:58;;;;;;;3.63;1.88;;;;;;;;;;5015432;28;20052;-80
2023/07/07 12:18:32;;;;;;;2.90;2.13;;;;;;;;;;5014745;28;20461;-80
2023/07/07 12:21:20;;;;;;;3.88;2.40;;;;;;;;;;5000193;28;20037;-82
2023/07/07 12:23:59;;;;;;;3.30;2.30;;;;;;;;;;5004693;28;20042;-81
2023/07/07 12:26:27;;;;;;;4.57;2.50;;;;;;;;;;5004448;28;20072;-82
2023/07/07 12:28:56;;;;;;;4.55;2.70;;;;;;;;;;5011580;28;20041;-80
2023/07/07 12:31:24;;;;;;;2.58;1.92;;;;;;;;;;5037031;28;20486;-81
2023/07/07 12:33:51;;;;;;;7.22;2.20;;;;;;;;;;5020618;28;20273;-80
2023/07/07 12:36:20;;;;;;;4.35;2.65;;;;;;;;;;5032033;28;20041;-80
2023/07/07 12:38:51;;;;;;;4.40;2.30;;;;;;;;;;5033369;28;20041;-80
2023/07/07 12:41:21;;;;;;;2.63;2.33;;;;;;;;;;5019904;28;20053;-81
2023/07/07 12:43:52;;;;;;;3.47;2.50;;;;;;;;;;5019507;28;20225;-82
2023/07/07 12:46:24;;;;;;;2.53;2.08;;;;;;;;;;5004303;28;20054;-82
2023/07/07 12:48:53;;;;;;;5.53;2.15;;;;;;;;;;5010694;28;20041;-84
2023/07/07 12:51:26;;;;;;;4.85;2.40;;;;;;;;;;5022577;28;20072;-83
2023/07/07 12:53:54;;;;;;;3.00;2.15;;;;;;;;;;4989859;28;20049;-82
2023/07/07 12:56:22;;;;;;;3.47;2.10;;;;;;;;;;5010613;28;20061;-82
2023/07/07 12:58:49;;;;;;;3.83;2.38;;;;;;;;;;5010650;28;20457;-83
2023/07/07 13:01:19;;;;;;;4.03;2.25;;;;;;;;;;5016292;28;20096;-83
2023/07/07 13:04:04;;;;;;;3.80;2.33;;;;;;;;;;5008767;28;20042;-80
2023/07/07 13:06:31;;;;;;;3.88;2.10;;;;;;;;;;5017654;28;20113;-78
2023/07/07 13:09:24;;;;;;;3.90;2.15;;;;;;;;;;5027425;28;20061;-80
2023/07/07 13:11:53;;;;;;;3.70;2.53;;;;;;;;;;5031572;28;20080;-76
2023/07/07 13:14:41;;;;;;;3.85;2.33;;;;;;;;;;5037589;28;20052;-77
2023/07/07 13:17:10;;;;;;;3.50;2.20;;;;;;;;;;4998198;28;20087;-82
2023/07/07 13:19:36;;;;;;;4.68;2.55;;;;;;;;;;5009785;28;20049;-81
2023/07/07 13:22:08;;;;;;;3.22;2.08;;;;;;;;;;5013601;28;20049;-78
2023/07/07 13:24:40;;;;;;;4.03;2.63;;;;;;;;;;5014057;28;20557;-78
2023/07/07 13:27:12;;;;;;;5.85;2.50;;;;;;;;;;5029457;28;20042;-80
2023/07/07 13:29:39;;;;;;;5.05;2.45;;;;;;;;;;5013576;28;20084;-80
2023/07/07 13:32:05;;;;;;;5.43;2.50;;;;;;;;;;5009545;28;20112;-82
2023/07/07 13:34:33;;;;;;;3.58;2.40;;;;;;;;;;5028907;28;20056;-83
2023/07/07 13:37:07;;;;;;;4.57;2.40;;;;;;;;;;4988996;28;20046;-82
2023/07/07 13:39:34;;;;;;;3.80;2.50;;;;;;;;;;5007575;28;20525;-80
2023/07/07 13:42:00;;;;;;;5.30;2.30;;;;;;;;;;5014526;28;20049;-82
2023/07/07 13:44:27;;;;;;;5.47;2.40;;;;;;;;;;5023762;28;20045;-80
2023/07/07 13:47:02;;;;;;;7.15;2.22;;;;;;;;;;5006685;28;20040;-82
2023/07/07 13:49:31;;;;;;;4.28;2.25;;;;;;;;;;5005478;28;20048;-80
2023/07/07 13:51:58;;;;;;;3.25;2.05;;;;;;;;;;5005282;28;20523;-80
2023/07/07 13:54:25;;;;;;;3.30;2.08;;;;;;;;;;5007014;28;20068;-81
2023/07/07 13:57:01;;;;;;;7.30;2.50;;;;;;;;;;5009218;28;20068;-80
2023/07/07 13:59:28;;;;;;;6.03;2.28;;;;;;;;;;5028651;28;20121;-80
2023/07/07 14:01:56;;;;;;;5.15;2.35;;;;;;;;;;5028792;28;20060;-81
2023/07/07 14:04:28;;;;;;;5.07;2.40;;;;;;;;;;5029319;28;20125;-85
2023/07/07 14:06:55;;;;;;;5.03;2.30;;;;;;;;;;5040664;28;20091;-84
2023/07/07 14:09:24;;;;;;;8.10;2.53;;;;;;;;;;5037153;28;20067;-85
2023/07/07 14:11:52;;;;;;;2.92;2.30;;;;;;;;;;5038343;28;20061;-83
2023/07/07 14:14:19;;;;;;;7.20;2.50;;;;;;;;;;5054892;28;20102;-83
2023/07/07 14:16:47;;;;;;;3.75;2.35;;;;;;;;;;5057171;28;20057;-83
2023/07/07 14:19:32;;;;;;;4.43;2.63;;;;;;;;;;5055764;28;20514;-83
2023/07/07 14:21:59;;;;;;;2.50;2.13;;;;;;;;;;5053944;28;20052;-82
2023/07/07 14:24:27;;;;;;;5.15;2.50;;;;;;;;;;5033961;28;20136;-82
2023/07/07 14:26:54;;;;;;;4.95;2.22;;;;;;;;;;5019000;28;20099;-83
2023/07/07 14:29:27;;;;;;;2.90;2.25;;;;;;;;;;5015466;28;20068;-82
2023/07/07 14:31:56;;;;;;;3.60;2.05;;;;;;;;;;5014999;28;20762;-82
2023/07/07 14:34:23;;;;;;;4.07;2.35;;;;;;;;;;5034716;28;20064;-82
2023/07/07 14:36:49;;;;;;;3.17;2.20;;;;;;;;;;5057761;28;20498;-82
2023/07/07 14:39:27;;;;;;;3.67;2.47;;;;;;;;;;5042219;28;20052;-84
2023/07/07 14:41:57;;;;;;;7.45;2.38;;;;;;;;;;5056341;28;20045;-82
2023/07/07 14:44:44;;;;;;;3.35;2.40;;;;;;;;;;5025251;28;20076;-82
2023/07/07 14:47:14;;;;;;;2.53;2.08;;;;;;;;;;5025260;28;20041;-85
2023/07/07 14:49:40;;;;;;;3.63;2.10;;;;;;;;;;5024915;28;20050;-82
2023/07/07 14:52:16;;;;;;;5.60;2.40;;;;;;;;;;5010859;28;20103;-86
2023/07/07 14:54:42;;;;;;;;;;;;;;;;;;5048104;28;20112;-83
2023/07/07 14:57:29;;;;;;;3.72;2.10;;;;;;;;;;5021603;28;19921;-84
2023/07/07 14:59:56;;;;;;;3.60;2.35;;;;;;;;;;4995223;28;20087;-83
2023/07/07 15:02:35;;;;;;;3.92;2.50;;;;;;;;;;5029808;28;20041;-83